Buckingham, IL (60917)

6:32 PM CST on February 12, 2016 (GMT -0600)
Herscher Fire Department | | Change Station
CLOSE
Current Station
Personal Weather Station
Location: Herscher, IL
Elevation: 656 ft
Nearby Weather Stations

Elev 656 ft 41.05 °N, 88.09 °W | Updated 36 minutes ago

Partly Cloudy
Partly Cloudy
20.0 °F
Feels Like 7 °F
N
13.0
Wind Variable Wind from NNW
Gusts 23.0 mph

Today
High -- | Low -- °F
--% Chance of Precip.
Yesterday
High -- | Low -- °F
Precip. -- in
Pressure 30.29 in
Visibility 10.0 miles
Clouds Scattered Clouds 4400 ft
Windchill 7 °F
Dew Point 6 °F
Humidity 55%
Rainfall 0.00 in
Snow Depth Not available.
6:51 AM 5:22 PM
Waxing Crescent, 25% visible
METAR KIKK 130015Z AUTO 31014G20KT 10SM SCT044 M06/M16 A3029 RMK AO2 T10651158
Pressure 30.29 in
Visibility 10.0 miles
Clouds Scattered Clouds 4400 ft
Windchill 7 °F
Dew Point 6 °F
Humidity 55%
Rainfall 0.00 in
Snow Depth Not available.
6:51 AM 5:22 PM
Waxing Crescent, 25% visible
METAR KIKK 130015Z AUTO 31014G20KT 10SM SCT044 M06/M16 A3029 RMK AO2 T10651158

10-Day Weather Forecast

Almanac

Astronomy

Feb. 12, 2016 Rise Set
Actual Time
Civil Twilight
Nautical Twilight
Astronomical Twilight
Moon
Length of Visible Light
Length of Day
Tomorrow will be .
, % of the Moon is Illuminated

Today's Extremes

State Highs State Lows

Community

WunderPhotos

Upload Photos

1,892,444 photos uploaded!

WunderBlog® & News

Nearby

Air Quality

  Air Quality AQ Index Pollutant
Not available.

Snow Depth

Station Depth Elevation

Earthquake Activity

City Distance Mag. Time & Date
Minimum magnitude displayed is 2.5.

Coastal Water Temperatures

Place Temperature

Stations

Nearby Weather Stations

Station Location Temp. Windchill Dew Point Humidity Wind Precip. Elev Updated Type
                   

Watches & Warnings

There are currently no watches in effect.